Roxbury, Vermont
Current Conditions -  °F | °C
As of 4:19 PM on Thursday 23 Oct 2014 (Local Time) from KMPV Reporting Station
Overcast Overcast  
Wind Chill: 40°   Ceiling: 900
Heat Index: 44°   Visibility: 10mi
Dew Point: 43°   Wind: 7mph
Humidity: 96%   Direction: 340°NNW
Pressure: 29.9"   Gusts: NA
Location:  44.09°N, 72.73°W
Report Text: KMPV 232019Z AUTO 34006KT 10SM OVC009 07/06 A2990 RMK AO2 CIG 007V013 T00670061
Loading
Personal Weather Stations






























Interactive Weather Map
Tropical Storm Tracking
New forecast layout! Learn more

10-Day Weather Forecast

Advertisements
Track Severe Weather on mobile